.
WxDataArchive / Data Records for 2008-12-30
2008-12-29 December 2008 2008-12-31

Data Records for Tuesday, 30 December 2008

Time	Temp	Chill	HIndex	Humid	Dewpt	 Wind 	HiWind	WindDir	Rain 	Barom 
-----	----	-----	------	-----	-----	------	------	-------	-----	----- 
00:00	32.5	32.5	32.5	69	23.5	0	2	225	0.00	30.151 
00:05	32.4	32.4	32.4	69	23.4	0	2	225	0.00	30.150 
00:10	32.2	32.2	32.2	70	23.5	0	2	225	0.00	30.152 
00:15	32.1	32.1	32.1	70	23.4	1	4	225	0.00	30.154 
00:20	32.1	32.1	32.1	70	23.4	0	2	248	0.00	30.156 
00:25	31.9	31.9	31.9	70	23.2	0	3	248	0.00	30.156 
00:30	31.8	31.8	31.8	70	23.2	0	1	248	0.00	30.156 
00:35	31.8	31.8	31.8	70	23.2	1	4	248	0.00	30.157 
00:40	31.8	31.8	31.8	69	22.8	0	1	248	0.00	30.163 
00:45	31.6	31.6	31.6	69	22.6	1	3	248	0.00	30.162 
00:50	31.6	31.6	31.6	69	22.6	0	2	248	0.00	30.163 
00:55	31.5	31.5	31.5	69	22.5	0	2	248	0.00	30.164 
01:00	31.2	31.2	31.2	69	22.2	0	3	248	0.00	30.163 
01:05	31.0	31.0	31.0	69	22.0	0	1	248	0.00	30.159 
01:10	31.0	31.0	31.0	68	21.7	0	2	248	0.00	30.163 
01:15	30.9	30.9	30.9	67	21.3	0	1	248	0.00	30.162 
01:20	30.7	30.7	30.7	66	20.7	0	1	248	0.00	30.167 
01:25	30.6	30.6	30.6	66	20.6	0	2	248	0.00	30.163 
01:30	30.4	30.4	30.4	65	20.1	0	2	248	0.00	30.172 
01:35	30.3	30.3	30.3	65	20.0	0	1	248	0.00	30.170 
01:40	30.1	30.1	30.1	65	19.8	0	1	248	0.00	30.169 
01:45	30.0	30.0	30.0	65	19.7	0	1	248	0.00	30.170 
01:50	29.8	29.8	29.8	65	19.5	0	1	248	0.00	30.171 
01:55	29.7	29.7	29.7	65	19.4	0	0	---	0.00	30.171 
02:00	29.5	29.5	29.5	65	19.2	0	1	248	0.00	30.171 
02:05	29.4	29.4	29.4	66	19.5	0	1	248	0.00	30.171 
02:10	29.4	29.4	29.4	67	19.8	0	1	248	0.00	30.173 
02:15	29.4	29.4	29.4	67	19.8	0	1	248	0.00	30.172 
02:20	29.3	29.3	29.3	68	20.1	0	1	248	0.00	30.171 
02:25	29.3	29.3	29.3	69	20.4	0	2	248	0.00	30.171 
02:30	29.3	29.3	29.3	70	20.8	0	2	248	0.00	30.171 
02:35	29.3	29.3	29.3	71	21.1	0	1	248	0.00	30.170 
02:40	29.3	29.3	29.3	72	21.4	0	2	248	0.00	30.171 
02:45	29.1	29.1	29.1	72	21.2	0	2	248	0.00	30.173 
02:50	29.1	29.1	29.1	72	21.2	0	1	248	0.00	30.173 
02:55	29.1	29.1	29.1	73	21.5	0	2	248	0.00	30.174 
03:00	29.0	29.0	29.0	73	21.4	0	0	---	0.00	30.173 
03:05	28.8	28.8	28.8	73	21.3	0	1	248	0.00	30.175 
03:10	28.7	28.7	28.7	74	21.5	0	1	248	0.00	30.175 
03:15	28.5	28.5	28.5	74	21.3	0	1	248	0.00	30.174 
03:20	28.4	28.4	28.4	74	21.2	0	0	---	0.00	30.176 
03:25	28.2	28.2	28.2	74	21.0	0	1	248	0.00	30.174 
03:30	28.1	28.1	28.1	74	20.9	0	0	---	0.00	30.172 
03:35	27.9	27.9	27.9	75	21.0	0	0	---	0.00	30.173 
03:40	27.6	27.6	27.6	75	20.7	0	0	---	0.00	30.166 
03:45	27.3	27.3	27.3	75	20.4	0	0	---	0.00	30.167 
03:50	27.0	27.0	27.0	76	20.5	0	0	---	0.00	30.168 
03:55	26.7	26.7	26.7	77	20.5	0	0	---	0.00	30.165 
04:00	26.6	26.6	26.6	77	20.4	0	0	---	0.00	30.159 
04:05	26.4	26.4	26.4	78	20.5	0	0	---	0.00	30.161 
04:10	26.1	26.1	26.1	78	20.2	0	0	---	0.00	30.160 
04:15	25.8	25.8	25.8	78	19.9	0	0	---	0.00	30.157 
04:20	25.6	25.6	25.6	78	19.7	0	0	---	0.00	30.153 
04:25	25.3	25.3	25.3	79	19.7	0	0	---	0.00	30.159 
04:30	25.0	25.0	25.0	79	19.4	0	0	---	0.00	30.154 
04:35	24.8	24.8	24.8	80	19.5	0	0	---	0.00	30.156 
04:40	24.7	24.7	24.7	81	19.7	0	0	---	0.00	30.157 
04:45	24.7	24.7	24.7	82	20.0	0	0	---	0.00	30.150 
04:50	24.5	24.5	24.5	82	19.8	0	0	---	0.00	30.150 
04:55	24.7	24.7	24.7	83	20.3	0	0	---	0.00	30.159 
05:00	24.8	24.8	24.8	83	20.4	0	0	---	0.00	30.162 
05:05	25.0	25.0	25.0	84	20.9	0	0	---	0.00	30.156 
05:10	25.0	25.0	25.0	84	20.9	0	0	---	0.00	30.157 
05:15	25.1	25.1	25.1	84	21.0	0	0	---	0.00	30.156 
05:20	25.3	25.3	25.3	84	21.2	0	0	---	0.00	30.160 
05:25	25.4	25.4	25.4	84	21.3	0	0	---	0.00	30.159 
05:30	25.4	25.4	25.4	84	21.3	0	0	---	0.00	30.162 
05:35	25.4	25.4	25.4	84	21.3	0	0	---	0.00	30.158 
05:40	25.3	25.3	25.3	84	21.2	0	0	---	0.00	30.154 
05:45	25.3	25.3	25.3	84	21.2	0	0	---	0.00	30.156 
05:50	25.4	25.4	25.4	84	21.3	0	0	---	0.00	30.164 
05:55	25.6	25.6	25.6	84	21.5	0	0	---	0.00	30.168 
06:00	25.8	25.8	25.8	84	21.6	0	1	248	0.00	30.168 
06:05	26.0	26.0	26.0	83	21.6	0	1	248	0.00	30.173 
06:10	26.1	26.1	26.1	83	21.7	0	0	---	0.00	30.170 
06:15	26.1	26.1	26.1	82	21.4	0	0	---	0.00	30.167 
06:20	26.1	26.1	26.1	82	21.4	0	0	---	0.00	30.165 
06:25	26.0	26.0	26.0	82	21.3	0	0	---	0.00	30.163 
06:30	26.0	26.0	26.0	82	21.3	0	0	---	0.00	30.163 
06:35	26.0	26.0	26.0	82	21.3	0	0	---	0.00	30.156 
06:40	26.1	26.1	26.1	82	21.4	0	0	---	0.00	30.155 
06:45	26.3	26.3	26.3	83	21.9	0	0	---	0.00	30.165 
06:50	26.6	26.6	26.6	82	21.9	0	0	---	0.00	30.169 
06:55	26.7	26.7	26.7	82	22.0	0	0	---	0.00	30.162 
07:00	26.9	26.9	26.9	82	22.2	0	0	---	0.00	30.161 
07:05	27.0	27.0	27.0	82	22.3	0	1	248	0.00	30.166 
07:10	27.3	27.3	27.3	82	22.5	0	1	248	0.00	30.166 
07:15	27.5	27.5	27.5	81	22.4	0	0	---	0.00	30.160 
07:20	27.5	27.5	27.5	81	22.4	0	0	---	0.00	30.157 
07:25	27.5	27.5	27.5	81	22.4	0	0	---	0.00	30.155 
07:30	27.6	27.6	27.6	81	22.5	0	0	---	0.00	30.157 
07:35	27.5	27.5	27.5	81	22.4	0	0	---	0.00	30.155 
07:40	27.5	27.5	27.5	81	22.4	0	0	---	0.00	30.150 
07:45	27.5	27.5	27.5	82	22.7	0	0	---	0.00	30.149 
07:50	27.3	27.3	27.3	82	22.5	0	0	---	0.00	30.151 
07:55	27.3	27.3	27.3	82	22.5	0	0	---	0.00	30.151 
08:00	27.3	27.3	27.3	82	22.5	0	0	---	0.00	30.147 
08:05	27.2	27.2	27.2	83	22.7	0	0	---	0.00	30.143 
08:10	27.2	27.2	27.2	83	22.7	0	0	---	0.00	30.144 
08:15	27.2	27.2	27.2	83	22.7	0	0	---	0.00	30.147 
08:20	27.0	27.0	27.0	84	22.8	0	1	248	0.00	30.140 
08:25	27.2	27.2	27.2	84	23.0	0	1	248	0.00	30.136 
08:30	27.2	27.2	27.2	84	23.0	0	0	---	0.00	30.143 
08:35	27.2	27.2	27.2	84	23.0	0	0	---	0.00	30.146 
08:40	27.2	27.2	27.2	84	23.0	0	0	---	0.00	30.149 
08:45	27.2	27.2	27.2	84	23.0	0	0	---	0.00	30.149 
08:50	27.2	27.2	27.2	84	23.0	0	0	---	0.00	30.150 
08:55	27.3	27.3	27.3	85	23.4	0	0	---	0.00	30.156 
09:00	27.5	27.5	27.5	85	23.6	0	0	---	0.00	30.159 
09:05	27.6	27.6	27.6	85	23.7	0	0	---	0.00	30.160 
09:10	27.8	27.8	27.8	85	23.9	0	0	---	0.00	30.154 
09:15	27.9	27.9	27.9	85	24.0	0	0	---	0.00	30.149 
09:20	28.1	28.1	28.1	85	24.2	0	0	---	0.00	30.147 
09:25	28.4	28.4	28.4	85	24.5	0	1	248	0.00	30.143 
09:30	28.5	28.5	28.5	85	24.6	0	0	---	0.00	30.139 
09:35	28.8	28.8	28.8	85	24.9	0	1	248	0.00	30.141 
09:40	29.0	29.0	29.0	85	25.1	0	1	248	0.00	30.142 
09:45	29.1	29.1	29.1	84	24.9	0	1	248	0.00	30.143 
09:50	29.4	29.4	29.4	84	25.2	0	1	248	0.00	30.140 
09:55	29.5	29.5	29.5	83	25.0	0	1	248	0.00	30.131 
10:00	29.7	29.7	29.7	82	24.9	0	1	248	0.00	30.130 
10:05	29.8	29.8	29.8	81	24.7	0	1	248	0.00	30.134 
10:10	30.1	30.1	30.1	81	25.0	0	1	248	0.00	30.130 
10:15	30.6	30.6	30.6	81	25.5	0	1	248	0.00	30.125 
10:20	30.9	30.9	30.9	80	25.5	0	1	248	0.00	30.117 
10:25	30.9	30.9	30.9	78	24.9	1	4	112	0.00	30.117 
10:30	31.0	31.0	31.0	77	24.7	0	3	112	0.00	30.117 
10:35	31.3	31.3	31.3	77	24.9	0	1	112	0.00	30.117 
10:40	31.6	31.6	31.6	75	24.6	0	2	112	0.00	30.118 
10:45	32.1	32.1	32.1	73	24.4	1	2	112	0.00	30.117 
10:50	32.5	32.5	32.5	71	24.2	1	3	112	0.00	30.116 
10:55	32.8	32.8	32.8	66	22.7	2	3	90	0.00	30.113 
11:00	32.9	32.9	32.9	64	22.1	1	5	112	0.00	30.105 
11:05	33.4	33.4	33.4	64	22.6	2	4	112	0.00	30.104 
11:10	33.5	33.5	33.5	63	22.3	1	4	90	0.00	30.103 
11:15	33.5	33.5	33.5	62	21.9	1	4	90	0.00	30.101 
11:20	33.5	33.5	33.5	62	21.9	1	4	112	0.00	30.101 
11:25	33.5	33.5	33.5	63	22.3	1	4	90	0.00	30.100 
11:30	33.5	33.5	33.5	62	21.9	1	4	112	0.00	30.098 
11:35	33.7	33.7	33.7	62	22.1	2	5	112	0.00	30.093 
11:40	33.7	33.7	33.7	63	22.5	1	4	112	0.00	30.086 
11:45	33.8	33.8	33.8	63	22.6	2	5	90	0.00	30.077 
11:50	34.0	34.0	34.0	62	22.4	2	5	112	0.00	30.068 
11:55	34.0	34.0	34.0	62	22.4	2	5	90	0.00	30.057 
12:00	34.0	34.0	34.0	62	22.4	2	5	112	0.00	30.053 
12:05	34.1	34.1	34.1	63	22.8	2	5	112	0.00	30.052 
12:10	34.3	34.3	34.3	62	22.7	2	6	112	0.00	30.045 
12:15	34.4	34.4	34.4	62	22.7	2	4	112	0.00	30.034 
12:20	34.4	34.4	34.4	62	22.7	2	6	112	0.00	30.025 
12:25	34.7	34.7	34.7	61	22.6	3	10	90	0.00	30.018 
12:30	34.7	34.7	34.7	62	23.0	3	6	90	0.00	30.011 
12:35	34.9	34.9	34.9	59	22.0	2	5	90	0.00	30.006 
12:40	35.0	35.0	35.0	60	22.5	2	6	90	0.00	30.002 
12:45	35.2	35.2	35.2	57	21.5	3	7	112	0.00	29.997 
12:50	35.3	35.3	35.3	56	21.2	3	7	90	0.00	29.990 
12:55	35.5	35.5	35.5	56	21.4	3	5	112	0.00	29.985 
13:00	35.8	35.8	35.8	58	22.5	2	7	90	0.00	29.974 
13:05	36.0	36.0	36.0	57	22.3	3	9	112	0.00	29.972 
13:10	36.0	36.0	36.0	58	22.7	3	8	112	0.00	29.970 
13:15	36.0	36.0	36.0	57	22.3	3	10	112	0.00	29.964 
13:20	36.3	36.3	36.3	58	23.0	2	5	112	0.00	29.960 
13:25	36.5	36.5	36.5	59	23.6	2	6	90	0.00	29.960 
13:30	36.8	36.8	36.8	58	23.4	3	7	112	0.00	29.959 
13:35	36.9	36.9	36.9	56	22.7	3	8	112	0.00	29.955 
13:40	37.0	37.0	37.0	57	23.2	3	6	112	0.00	29.948 
13:45	37.2	34.1	37.2	57	23.4	4	9	112	0.00	29.944 
13:50	37.2	37.2	37.2	56	23.0	3	7	90	0.00	29.938 
13:55	37.2	34.1	37.2	57	23.4	4	10	112	0.00	29.934 
14:00	37.2	33.2	37.2	56	23.0	5	10	90	0.00	29.928 
14:05	37.5	37.5	37.5	57	23.7	3	6	112	0.00	29.923 
14:10	37.6	34.5	37.6	56	23.3	4	10	112	0.00	29.912 
14:15	37.8	37.8	37.8	56	23.5	3	10	112	0.00	29.903 
14:20	37.8	33.9	37.8	56	23.5	5	10	112	0.00	29.897 
14:25	37.8	34.8	37.8	57	24.0	4	11	112	0.00	29.892 
14:30	37.9	34.9	37.9	56	23.6	4	10	112	0.00	29.881 
14:35	38.2	38.2	38.2	55	23.5	3	9	112	0.00	29.879 
14:40	38.2	38.2	38.2	55	23.5	3	9	90	0.00	29.877 
14:45	38.3	35.4	38.3	55	23.6	4	7	112	0.00	29.865 
14:50	38.3	34.5	38.3	56	24.0	5	10	112	0.00	29.864 
14:55	38.3	34.5	38.3	55	23.6	5	12	112	0.00	29.860 
15:00	38.6	38.6	38.6	53	23.0	3	7	90	0.00	29.848 
15:05	38.8	38.8	38.8	54	23.6	2	6	90	0.00	29.849 
15:10	38.9	36.0	38.9	53	23.2	4	11	90	0.00	29.843 
15:15	38.9	38.9	38.9	54	23.7	3	6	90	0.00	29.834 
15:20	38.9	36.0	38.9	53	23.2	4	9	112	0.00	29.832 
15:25	38.9	36.0	38.9	53	23.2	4	10	90	0.00	29.826 
15:30	39.2	36.4	39.2	53	23.5	4	10	90	0.00	29.818 
15:35	39.3	36.5	39.3	54	24.1	4	9	112	0.00	29.817 
15:40	39.3	39.3	39.3	53	23.6	3	10	112	0.00	29.814 
15:45	39.5	39.5	39.5	53	23.8	3	8	112	0.00	29.803 
15:50	39.6	39.6	39.6	54	24.3	2	4	112	0.00	29.801 
15:55	39.6	36.9	39.6	53	23.9	4	7	112	0.00	29.793 
16:00	39.6	36.0	39.6	55	24.8	5	9	112	0.00	29.784 
16:05	39.5	39.5	39.5	57	25.5	3	5	112	0.00	29.781 
16:10	39.5	39.5	39.5	55	24.7	2	7	90	0.00	29.779 
16:15	39.6	39.6	39.6	54	24.3	2	5	68	0.00	29.773 
16:20	39.8	39.8	39.8	53	24.1	3	6	112	0.00	29.770 
16:25	39.8	39.8	39.8	54	24.5	2	6	90	0.00	29.768 
16:30	39.8	39.8	39.8	54	24.5	2	6	112	0.00	29.760 
16:35	39.6	39.6	39.6	55	24.8	3	7	112	0.00	29.755 
16:40	39.6	39.6	39.6	55	24.8	2	5	112	0.00	29.754 
16:45	39.6	39.6	39.6	55	24.8	3	7	112	0.00	29.748 
16:50	39.3	39.3	39.3	55	24.5	2	7	112	0.00	29.742 
16:55	39.2	39.2	39.2	56	24.8	2	4	90	0.00	29.740 
17:00	39.1	39.1	39.1	57	25.2	1	4	112	0.00	29.742 
17:05	38.9	38.9	38.9	57	25.0	2	4	112	0.00	29.737 
17:10	38.8	38.8	38.8	58	25.3	2	4	112	0.00	29.731 
17:15	38.5	38.5	38.5	58	25.0	2	4	90	0.00	29.724 
17:20	38.2	38.2	38.2	59	25.2	1	3	112	0.00	29.723 
17:25	38.0	38.0	38.0	60	25.4	2	3	90	0.00	29.722 
17:30	37.8	37.8	37.8	61	25.6	2	5	90	0.00	29.720 
17:35	37.6	37.6	37.6	61	25.4	1	3	90	0.00	29.720 
17:40	37.3	37.3	37.3	62	25.5	2	4	90	0.00	29.717 
17:45	37.2	37.2	37.2	62	25.4	2	3	90	0.00	29.711 
17:50	36.9	36.9	36.9	63	25.5	1	4	90	0.00	29.709 
17:55	36.8	36.8	36.8	64	25.8	1	3	90	0.00	29.708 
18:00	36.5	36.5	36.5	64	25.5	2	4	90	0.00	29.702 
18:05	36.2	36.2	36.2	65	25.6	2	4	90	0.00	29.699 
18:10	36.0	36.0	36.0	66	25.8	1	3	90	0.00	29.694 
18:15	35.9	35.9	35.9	66	25.7	2	5	112	0.00	29.688 
18:20	35.8	35.8	35.8	67	25.9	1	3	112	0.00	29.691 
18:25	35.6	35.6	35.6	67	25.7	1	3	90	0.00	29.680 
18:30	35.5	35.5	35.5	68	26.0	1	2	90	0.00	29.679 
18:35	35.2	35.2	35.2	68	25.7	1	3	90	0.00	29.679 
18:40	35.0	35.0	35.0	68	25.5	0	1	90	0.00	29.683 
18:45	34.7	34.7	34.7	69	25.6	0	1	90	0.00	29.682 
18:50	34.4	34.4	34.4	69	25.3	0	1	90	0.00	29.683 
18:55	34.4	34.4	34.4	69	25.3	1	3	90	0.00	29.681 
19:00	34.4	34.4	34.4	69	25.3	0	2	90	0.00	29.679 
19:05	34.3	34.3	34.3	69	25.2	0	1	90	0.00	29.677 
19:10	34.1	34.1	34.1	69	25.0	0	0	---	0.00	29.676 
19:15	33.8	33.8	33.8	71	25.4	0	2	90	0.00	29.674 
19:20	33.8	33.8	33.8	71	25.4	0	2	90	0.00	29.672 
19:25	33.8	33.8	33.8	71	25.4	0	2	90	0.00	29.664 
19:30	33.5	33.5	33.5	72	25.5	0	1	90	0.00	29.664 
19:35	33.4	33.4	33.4	73	25.7	1	3	90	0.00	29.659 
19:40	33.4	33.4	33.4	73	25.7	0	2	90	0.00	29.657 
19:45	33.2	33.2	33.2	73	25.5	0	1	90	0.00	29.651 
19:50	33.1	33.1	33.1	74	25.7	0	2	90	0.00	29.648 
19:55	33.1	33.1	33.1	75	26.1	0	2	90	0.00	29.643 
20:00	33.1	33.1	33.1	75	26.1	0	2	90	0.00	29.646 
20:05	33.1	33.1	33.1	76	26.4	0	1	90	0.00	29.643 
20:10	33.1	33.1	33.1	76	26.4	0	1	90	0.00	29.637 
20:15	33.1	33.1	33.1	77	26.7	0	2	90	0.00	29.629 
20:20	32.9	32.9	32.9	77	26.5	0	2	90	0.00	29.626 
20:25	32.9	32.9	32.9	77	26.5	0	1	90	0.00	29.625 
20:30	32.9	32.9	32.9	78	26.8	0	2	90	0.00	29.621 
20:35	32.9	32.9	32.9	78	26.8	0	0	---	0.00	29.618 
20:40	32.8	32.8	32.8	78	26.7	0	1	90	0.00	29.618 
20:45	32.8	32.8	32.8	79	27.0	0	1	90	0.00	29.620 
20:50	32.8	32.8	32.8	79	27.0	0	0	---	0.00	29.617 
20:55	32.9	32.9	32.9	79	27.1	0	0	---	0.00	29.617 
21:00	33.4	33.4	33.4	81	28.2	0	2	90	0.00	29.615 
21:05	34.7	34.7	34.7	82	29.8	1	5	248	0.00	29.610 
21:10	35.9	35.9	35.9	81	30.6	1	6	248	0.00	29.609 
21:15	36.9	36.9	36.9	81	31.6	1	4	248	0.00	29.609 
21:20	37.6	37.6	37.6	79	31.7	2	7	248	0.00	29.607 
21:25	38.2	38.2	38.2	78	32.0	2	6	248	0.00	29.605 
21:30	38.6	38.6	38.6	78	32.3	3	5	270	0.00	29.601 
21:35	38.9	38.9	38.9	78	32.6	2	5	270	0.00	29.600 
21:40	39.3	39.3	39.3	77	32.7	3	7	270	0.00	29.605 
21:45	39.8	37.1	39.8	76	32.9	4	7	270	0.00	29.603 
21:50	39.9	39.9	39.9	75	32.6	3	10	270	0.00	29.597 
21:55	40.1	40.1	40.1	74	32.5	3	9	270	0.00	29.596 
22:00	40.1	40.1	40.1	74	32.5	3	11	270	0.00	29.595 
22:05	40.1	37.4	40.1	74	32.5	4	10	270	0.00	29.593 
22:10	40.1	40.1	40.1	74	32.5	3	5	292	0.00	29.596 
22:15	40.1	40.1	40.1	74	32.5	3	6	270	0.00	29.596 
22:20	40.1	37.4	40.1	73	32.2	4	12	270	0.00	29.598 
22:25	40.1	40.1	40.1	73	32.2	3	7	270	0.00	29.598 
22:30	40.1	40.1	40.1	73	32.2	3	6	270	0.00	29.604 
22:35	39.9	39.9	39.9	73	32.0	3	10	270	0.00	29.605 
22:40	39.9	37.2	39.9	73	32.0	4	10	270	0.00	29.605 
22:45	39.9	39.9	39.9	73	32.0	3	9	270	0.00	29.609 
22:50	39.8	36.2	39.8	73	31.9	5	11	270	0.00	29.614 
22:55	39.8	36.2	39.8	73	31.9	5	10	270	0.00	29.619 
23:00	39.8	37.1	39.8	72	31.5	4	10	270	0.00	29.621 
23:05	39.6	36.9	39.6	73	31.7	4	10	270	0.00	29.622 
23:10	39.5	36.7	39.5	74	31.9	4	9	270	0.00	29.627 
23:15	39.3	36.5	39.3	74	31.7	4	7	270	0.00	29.632 
23:20	39.2	36.4	39.2	74	31.6	4	10	270	0.00	29.635 
23:25	39.1	35.4	39.1	75	31.9	5	12	270	0.00	29.637 
23:30	38.9	35.2	38.9	75	31.7	5	14	270	0.00	29.637 
23:35	38.8	35.9	38.8	76	31.9	4	9	270	0.00	29.639 
23:40	38.6	35.7	38.6	76	31.7	4	7	270	0.00	29.645 
23:45	38.5	34.7	38.5	75	31.3	5	10	270	0.00	29.646 
23:50	38.3	34.5	38.3	75	31.1	5	10	270	0.00	29.649 
23:55	38.2	34.4	38.2	72	30.0	5	10	270	0.00	29.651 

CoCoRaHS
IN-AL-39
A2 Web Hosting
Creative Commons License
GoDaddy
search engine by freefind advanced

loaded 2018-11-14 04:26:00 • last modified 2010-11-18 10:43:29
Privacy PolicyDisclaimer
• wx.awcolley.com is powered by PmWiki v.2002016 •
• all content (unless otherwise noted) © 2018 A W Colley